Macedonia, Iowa
Current Conditions -  °F | °C
As of 2:15 PM on Monday 24 Nov 2014 (Local Time) from KRDK Reporting Station
Overcast Overcast  
Wind Chill: 20°   Ceiling: 2900
Heat Index: 32°   Visibility: NA
Dew Point: 19°   Wind: 21mph
Humidity: 60%   Direction: 320°NW
Pressure: 29.78"   Gusts: NA
Location:  41.19°N, 95.43°W
Report Text: KRDK 242015Z AUTO 32018KT OVC029 M00/M07 A2978 RMK AO2
Loading
Personal Weather Stations






























Interactive Weather Map New forecast layout! Learn more

10-Day Weather Forecast

Advertisements
Track Severe Weather on mobile